createdAt,value
2022-12-01T00:01:06.943Z,11.82
2022-12-01T00:03:34.965Z,12.55
2022-12-01T00:06:11.311Z,11.60
2022-12-01T00:08:37.949Z,11.82
2022-12-01T00:11:11.405Z,11.35
2022-12-01T00:13:38.334Z,12.55
2022-12-01T00:16:16.893Z,12.15
2022-12-01T00:18:44.049Z,11.85
2022-12-01T00:21:15.694Z,11.68
2022-12-01T00:23:50.073Z,12.02
2022-12-01T00:26:21.473Z,12.45
2022-12-01T00:28:53.939Z,11.77
2022-12-01T00:31:24.205Z,13.30
2022-12-01T00:33:51.459Z,11.90
2022-12-01T00:36:18.457Z,12.30
2022-12-01T00:38:45.462Z,12.52
2022-12-01T00:41:12.120Z,11.80
2022-12-01T00:43:39.820Z,12.60
2022-12-01T00:46:07.131Z,11.45
2022-12-01T00:48:33.930Z,12.35
2022-12-01T00:51:00.734Z,12.45
2022-12-01T00:53:27.352Z,12.23
2022-12-01T00:55:54.108Z,11.93
2022-12-01T00:58:21.555Z,11.88
2022-12-01T01:00:48.481Z,12.93
2022-12-01T01:03:15.516Z,13.13
2022-12-01T01:05:43.761Z,12.05
2022-12-01T01:08:13.137Z,12.27
2022-12-01T01:10:41.731Z,12.18
2022-12-01T01:13:09.027Z,12.38
2022-12-01T01:15:36.188Z,11.95
2022-12-01T01:18:03.630Z,12.63
2022-12-01T01:20:31.500Z,12.23
2022-12-01T01:22:58.189Z,12.43
2022-12-01T01:25:25.489Z,11.50
2022-12-01T01:27:52.211Z,13.00
2022-12-01T01:30:20.136Z,12.00
2022-12-01T01:32:46.747Z,12.05
2022-12-01T01:35:13.453Z,12.95
2022-12-01T01:37:40.042Z,11.63
2022-12-01T01:40:07.239Z,12.98
2022-12-01T01:42:33.876Z,12.68
2022-12-01T01:45:00.719Z,12.85
2022-12-01T01:47:36.925Z,13.05
2022-12-01T01:50:14.759Z,12.73
2022-12-01T01:52:46.375Z,12.75
2022-12-01T01:55:14.599Z,12.45
2022-12-01T01:57:43.017Z,12.40
2022-12-01T02:00:21.821Z,11.98
2022-12-01T02:02:50.453Z,12.90
2022-12-01T02:05:24.846Z,13.10
2022-12-01T02:07:53.913Z,12.35
2022-12-01T02:10:24.411Z,11.75
2022-12-01T02:13:18.698Z,13.48
2022-12-01T02:15:57.637Z,11.98
2022-12-01T02:18:45.901Z,11.57
2022-12-01T02:21:54.695Z,12.45
2022-12-01T02:24:21.310Z,12.55
2022-12-01T02:26:56.907Z,12.90
2022-12-01T02:29:38.906Z,13.68
2022-12-01T02:32:31.699Z,14.95
2022-12-01T02:35:21.384Z,12.82
2022-12-01T02:40:28.851Z,12.25
2022-12-01T02:43:13.524Z,12.27
2022-12-01T02:45:56.341Z,11.63
2022-12-01T02:48:22.929Z,12.43
2022-12-01T02:50:51.291Z,12.75
2022-12-01T02:53:19.483Z,14.07
2022-12-01T02:55:48.260Z,12.65
2022-12-01T02:58:15.431Z,9.32
2022-12-01T03:01:11.092Z,12.63
2022-12-01T03:03:47.129Z,12.57
2022-12-01T03:06:31.149Z,13.30
2022-12-01T03:09:27.075Z,14.57
2022-12-01T03:12:10.720Z,14.15
2022-12-01T03:14:45.541Z,13.45
2022-12-01T03:17:19.833Z,14.65
2022-12-01T03:19:53.626Z,16.90
2022-12-01T03:22:27.085Z,14.40
2022-12-01T03:24:55.952Z,15.25
2022-12-01T03:27:30.050Z,10.40
2022-12-01T03:30:00.095Z,12.55
2022-12-01T03:32:32.229Z,14.40
2022-12-01T03:35:04.815Z,13.30
2022-12-01T03:37:37.671Z,13.23
2022-12-01T03:40:10.252Z,13.65
2022-12-01T03:42:46.293Z,12.05
2022-12-01T03:45:19.958Z,13.15
2022-12-01T03:47:46.831Z,12.68
2022-12-01T03:50:14.361Z,14.73
2022-12-01T03:53:10.110Z,12.80
2022-12-01T03:55:41.563Z,13.40
2022-12-01T03:58:20.406Z,12.98
2022-12-01T04:00:50.047Z,11.10
2022-12-01T04:03:19.059Z,10.45
2022-12-01T04:05:46.075Z,9.73
2022-12-01T04:08:12.747Z,11.32
2022-12-01T04:10:39.388Z,9.23
2022-12-01T04:13:05.997Z,9.88
2022-12-01T04:15:32.632Z,9.68
2022-12-01T04:17:59.262Z,10.18
2022-12-01T04:20:25.875Z,10.15
2022-12-01T04:22:52.502Z,9.55
2022-12-01T04:25:19.081Z,10.55
2022-12-01T04:27:45.720Z,10.32
2022-12-01T04:30:12.771Z,10.60
2022-12-01T04:32:41.194Z,10.32
2022-12-01T04:35:09.853Z,11.18
2022-12-01T04:37:36.502Z,11.05
2022-12-01T04:40:03.574Z,11.05
2022-12-01T04:42:30.366Z,10.75
2022-12-01T04:44:57.057Z,10.52
2022-12-01T04:47:23.820Z,11.52
2022-12-01T04:49:50.690Z,11.45
2022-12-01T04:52:17.626Z,10.38
2022-12-01T04:54:44.207Z,11.25
2022-12-01T04:57:10.768Z,10.65
2022-12-01T04:59:37.420Z,10.27
2022-12-01T05:02:04.405Z,9.98
2022-12-01T05:04:32.541Z,10.77
2022-12-01T05:06:59.168Z,9.38
2022-12-01T05:09:25.806Z,10.60
2022-12-01T05:11:52.555Z,10.82
2022-12-01T05:14:19.177Z,9.90
2022-12-01T05:16:45.906Z,10.35
2022-12-01T05:19:31.007Z,9.07
2022-12-01T05:21:57.657Z,10.80
2022-12-01T05:24:25.955Z,11.20
2022-12-01T05:26:52.577Z,11.30
2022-12-01T05:29:19.351Z,11.32
2022-12-01T05:31:46.781Z,10.40
2022-12-01T05:34:14.098Z,11.15
2022-12-01T05:36:40.794Z,9.95
2022-12-01T05:39:07.466Z,10.52
2022-12-01T05:41:34.125Z,9.50
2022-12-01T05:44:00.768Z,9.70
2022-12-01T05:46:27.565Z,11.15
2022-12-01T05:48:54.320Z,9.60
2022-12-01T05:51:21.087Z,9.77
2022-12-01T05:53:47.827Z,10.20
2022-12-01T05:56:14.541Z,10.02
2022-12-01T05:58:41.280Z,10.27
2022-12-01T06:01:08.093Z,10.32
2022-12-01T06:03:34.759Z,11.18
2022-12-01T06:06:01.433Z,10.27
2022-12-01T06:08:28.180Z,11.93
2022-12-01T06:10:54.840Z,10.50
2022-12-01T06:13:21.524Z,11.30
2022-12-01T06:15:57.009Z,10.98
2022-12-01T06:18:24.691Z,11.02
2022-12-01T06:20:51.307Z,11.15
2022-12-01T06:23:18.151Z,11.50
2022-12-01T06:25:44.855Z,11.20
2022-12-01T06:28:11.607Z,11.05
2022-12-01T06:30:38.448Z,11.25
2022-12-01T06:33:05.530Z,11.52
2022-12-01T06:35:32.172Z,10.82
2022-12-01T06:37:58.968Z,12.38
2022-12-01T06:40:25.576Z,11.57
2022-12-01T06:42:52.307Z,12.23
2022-12-01T06:45:19.450Z,12.70
2022-12-01T06:47:48.506Z,13.30
2022-12-01T06:50:15.485Z,13.07
2022-12-01T06:52:42.081Z,11.82
2022-12-01T06:55:09.106Z,11.48
2022-12-01T06:57:36.384Z,11.63
2022-12-01T07:00:04.287Z,11.93
2022-12-01T07:02:31.329Z,11.75
2022-12-01T07:04:58.040Z,10.65
2022-12-01T07:07:24.703Z,10.35
2022-12-01T07:09:51.528Z,10.52
2022-12-01T07:12:18.343Z,10.52
2022-12-01T07:14:45.267Z,9.40
2022-12-01T07:17:14.131Z,9.88
2022-12-01T07:19:40.793Z,9.83
2022-12-01T07:22:07.494Z,9.13
2022-12-01T07:24:34.159Z,10.73
2022-12-01T07:27:00.813Z,11.27
2022-12-01T07:29:27.445Z,10.65
2022-12-01T07:31:54.119Z,11.32
2022-12-01T07:34:21.240Z,10.65
2022-12-01T07:36:51.749Z,10.50
2022-12-01T07:39:18.637Z,11.50
2022-12-01T07:41:45.449Z,10.73
2022-12-01T07:44:12.323Z,10.43
2022-12-01T07:46:39.311Z,11.25
2022-12-01T07:49:07.620Z,10.80
2022-12-01T07:51:35.120Z,10.35
2022-12-01T07:54:06.956Z,13.00
2022-12-01T07:56:34.220Z,11.68
2022-12-01T07:59:01.172Z,12.15
2022-12-01T08:01:28.170Z,11.00
2022-12-01T08:03:57.377Z,11.02
2022-12-01T08:06:25.149Z,9.90
2022-12-01T08:08:52.471Z,10.50
2022-12-01T08:11:22.179Z,11.00
2022-12-01T08:13:49.644Z,11.75
2022-12-01T08:16:18.815Z,9.63
2022-12-01T08:18:46.075Z,6.97
2022-12-01T08:21:16.925Z,8.10
2022-12-01T08:23:44.106Z,8.68
2022-12-01T08:26:16.436Z,8.43
2022-12-01T08:28:43.874Z,9.25
2022-12-01T08:31:19.770Z,9.45
2022-12-01T08:33:47.712Z,8.70
2022-12-01T08:36:15.500Z,8.63
2022-12-01T08:38:46.337Z,10.02
2022-12-01T08:41:14.136Z,8.57
2022-12-01T08:44:00.295Z,7.72
2022-12-01T08:46:37.286Z,10.35
2022-12-01T08:49:05.711Z,10.18
2022-12-01T08:51:32.682Z,11.52
2022-12-01T08:54:00.646Z,12.00
2022-12-01T08:56:29.633Z,11.68
2022-12-01T08:58:56.393Z,8.93
2022-12-01T09:01:23.320Z,11.05
2022-12-01T09:04:05.156Z,10.05
2022-12-01T09:06:34.608Z,9.77
2022-12-01T09:09:01.493Z,8.97
2022-12-01T09:11:28.337Z,10.38
2022-12-01T09:13:55.284Z,11.15
2022-12-01T09:16:22.278Z,11.48
2022-12-01T09:18:49.293Z,10.55
2022-12-01T09:21:20.461Z,9.43
2022-12-01T09:23:47.472Z,10.65
2022-12-01T09:26:18.130Z,10.05
2022-12-01T09:28:53.625Z,9.57
2022-12-01T09:31:23.652Z,10.43
2022-12-01T09:34:18.539Z,9.80
2022-12-01T09:36:46.262Z,10.35
2022-12-01T09:39:20.436Z,10.32
2022-12-01T09:41:55.249Z,10.32
2022-12-01T09:44:41.392Z,9.88
2022-12-01T09:47:19.186Z,9.63
2022-12-01T09:50:08.043Z,10.93
2022-12-01T09:52:49.018Z,9.35
2022-12-01T09:55:18.394Z,8.52
2022-12-01T09:57:48.980Z,9.50
2022-12-01T10:00:25.257Z,9.45
2022-12-01T10:02:58.536Z,8.68
2022-12-01T10:05:31.444Z,8.82
2022-12-01T10:08:05.902Z,9.13
2022-12-01T10:10:56.680Z,9.68
2022-12-01T10:13:26.102Z,9.07
2022-12-01T10:16:18.387Z,9.52
2022-12-01T10:19:22.270Z,9.63
2022-12-01T10:22:26.541Z,9.27
2022-12-01T10:25:06.817Z,58.67
2022-12-01T10:27:42.525Z,10.70
2022-12-01T10:30:16.841Z,9.13
2022-12-01T10:32:46.378Z,9.05
2022-12-01T10:35:16.671Z,8.63
2022-12-01T10:37:44.860Z,8.57
2022-12-01T10:40:16.584Z,9.13
2022-12-01T10:42:45.676Z,10.10
2022-12-01T10:45:26.692Z,9.38
2022-12-01T10:48:18.377Z,9.52
2022-12-01T10:50:47.858Z,9.60
2022-12-01T10:53:23.706Z,9.73
2022-12-01T10:55:58.585Z,9.50
2022-12-01T10:58:26.333Z,8.60
2022-12-01T11:01:09.568Z,8.65
2022-12-01T11:03:37.601Z,9.02
2022-12-01T11:06:06.801Z,8.05
2022-12-01T11:08:59.967Z,8.37
2022-12-01T11:11:36.299Z,8.50
2022-12-01T11:14:19.516Z,9.05
2022-12-01T11:16:48.808Z,10.35
2022-12-01T11:19:32.763Z,8.70
2022-12-01T11:22:04.645Z,8.93
2022-12-01T11:25:06.703Z,9.07
2022-12-01T11:27:49.013Z,8.10
2022-12-01T11:30:32.371Z,8.50
2022-12-01T11:33:07.190Z,8.20
2022-12-01T11:35:39.676Z,8.05
2022-12-01T11:38:29.309Z,9.23
2022-12-01T11:40:56.288Z,8.77
2022-12-01T11:43:33.385Z,9.38
2022-12-01T11:46:05.016Z,9.73
2022-12-01T11:48:37.266Z,8.63
2022-12-01T11:51:08.085Z,9.65
2022-12-01T11:53:37.783Z,9.55
2022-12-01T11:56:15.223Z,9.40
2022-12-01T11:58:47.383Z,10.18
2022-12-01T12:01:36.431Z,9.82
2022-12-01T12:04:43.804Z,8.48
2022-12-01T12:07:21.840Z,9.82
2022-12-01T12:10:07.889Z,8.65
2022-12-01T12:12:54.236Z,9.70
2022-12-01T12:15:30.037Z,10.02
2022-12-01T12:18:11.749Z,11.25
2022-12-01T12:20:57.698Z,11.43
2022-12-01T12:23:45.319Z,10.15
2022-12-01T12:26:18.040Z,9.48
2022-12-01T12:29:12.218Z,9.27
2022-12-01T12:32:12.911Z,10.82
2022-12-01T12:34:49.560Z,9.13
2022-12-01T12:37:24.776Z,8.77
2022-12-01T12:40:04.801Z,8.27
2022-12-01T12:43:15.972Z,10.27
2022-12-01T12:46:14.243Z,9.63
2022-12-01T12:52:26.658Z,8.65
2022-12-01T12:55:02.981Z,8.80
2022-12-01T12:57:43.686Z,9.10
2022-12-01T13:00:10.598Z,9.00
2022-12-01T13:03:06.768Z,9.63
2022-12-01T13:05:51.411Z,10.40
2022-12-01T13:08:26.807Z,10.27
2022-12-01T13:11:07.867Z,56.45
2022-12-01T13:13:42.390Z,13.00
2022-12-01T13:16:18.437Z,21.92
2022-12-01T13:18:53.946Z,10.02
2022-12-01T13:21:24.528Z,9.57
2022-12-01T13:23:52.903Z,9.82
2022-12-01T13:26:23.881Z,10.10
2022-12-01T13:28:53.847Z,11.68
2022-12-01T13:31:22.027Z,9.35
2022-12-01T13:34:02.214Z,10.23
2022-12-01T13:39:26.659Z,11.45
2022-12-01T13:42:09.297Z,9.52
2022-12-01T13:44:53.558Z,10.27
2022-12-01T13:47:20.560Z,9.15
2022-12-01T13:49:53.054Z,9.93
2022-12-01T13:52:26.665Z,9.68
2022-12-01T13:55:08.494Z,8.80
2022-12-01T13:57:41.624Z,8.77
2022-12-01T14:00:24.219Z,12.43
2022-12-01T14:03:15.180Z,10.25
2022-12-01T14:05:43.629Z,8.73
2022-12-01T14:08:37.616Z,8.43
2022-12-01T14:11:17.711Z,10.63
2022-12-01T14:13:53.100Z,8.98
2022-12-01T14:16:27.196Z,11.38
2022-12-01T14:19:01.623Z,9.57
2022-12-01T14:21:42.828Z,8.82
2022-12-01T14:24:23.611Z,9.60
2022-12-01T14:26:52.059Z,8.02
2022-12-01T14:29:38.653Z,8.48
2022-12-01T14:32:20.404Z,8.35
2022-12-01T14:34:52.306Z,8.38
2022-12-01T14:37:22.336Z,8.52
2022-12-01T14:40:07.770Z,7.78
2022-12-01T14:42:57.468Z,7.93
2022-12-01T14:45:38.722Z,8.05
2022-12-01T14:48:11.410Z,8.32
2022-12-01T14:50:49.343Z,9.55
2022-12-01T14:53:22.937Z,8.75
2022-12-01T14:55:54.538Z,8.32
2022-12-01T14:58:26.094Z,8.25
2022-12-01T15:00:59.583Z,7.97
2022-12-01T15:03:32.363Z,9.15
2022-12-01T15:05:59.459Z,13.77
2022-12-01T15:09:04.051Z,9.30
2022-12-01T15:11:26.065Z,8.95
2022-12-01T15:13:55.385Z,9.88
2022-12-01T15:16:46.652Z,9.38
2022-12-01T15:19:46.112Z,8.95
2022-12-01T15:22:18.654Z,9.00
2022-12-01T15:24:45.802Z,10.18
2022-12-01T15:27:45.185Z,9.27
2022-12-01T15:30:19.720Z,9.48
2022-12-01T15:32:46.961Z,10.18
2022-12-01T15:35:20.985Z,12.25
2022-12-01T15:37:48.637Z,10.70
2022-12-01T15:41:06.218Z,11.02
2022-12-01T15:43:23.420Z,12.13
2022-12-01T15:45:57.716Z,11.57
2022-12-01T15:48:36.418Z,12.27
2022-12-01T15:51:29.716Z,12.77
2022-12-01T15:54:01.662Z,14.43
2022-12-01T15:56:39.455Z,15.80
2022-12-01T15:59:14.165Z,17.65
2022-12-01T16:01:45.283Z,17.95
2022-12-01T16:04:23.184Z,16.58
2022-12-01T16:07:10.542Z,17.20
2022-12-01T16:09:39.549Z,14.15
2022-12-01T16:12:09.260Z,12.68
2022-12-01T16:17:05.072Z,12.85
2022-12-01T16:19:34.330Z,14.35
2022-12-01T16:22:21.728Z,10.50
2022-12-01T16:24:58.339Z,14.75
2022-12-01T16:27:27.550Z,16.10
2022-12-01T16:30:02.860Z,14.73
2022-12-01T16:32:36.165Z,17.73
2022-12-01T16:35:26.748Z,15.27
2022-12-01T16:37:55.099Z,15.13
2022-12-01T16:40:22.506Z,15.98
2022-12-01T16:42:50.163Z,16.25
2022-12-01T16:45:18.939Z,14.35
2022-12-01T16:48:01.498Z,16.20
2022-12-01T16:50:31.606Z,15.73
2022-12-01T16:52:58.519Z,15.73
2022-12-01T16:55:47.159Z,15.45
2022-12-01T16:58:14.306Z,12.90
2022-12-01T17:00:41.388Z,15.73
2022-12-01T17:03:15.895Z,15.93
2022-12-01T17:05:42.624Z,16.23
2022-12-01T17:08:12.527Z,16.98
2022-12-01T17:10:44.548Z,16.63
2022-12-01T17:13:12.133Z,14.43
2022-12-01T17:15:43.588Z,14.93
2022-12-01T17:18:10.850Z,15.70
2022-12-01T17:20:41.607Z,15.65
2022-12-01T17:23:08.493Z,14.57
2022-12-01T17:25:48.300Z,16.85
2022-12-01T17:28:16.962Z,16.48
2022-12-01T17:30:44.348Z,15.63
2022-12-01T17:33:11.951Z,15.70
2022-12-01T17:35:39.819Z,14.60
2022-12-01T17:38:07.263Z,15.07
2022-12-01T17:40:34.518Z,15.70
2022-12-01T17:43:04.151Z,15.55
2022-12-01T17:45:32.406Z,16.92
2022-12-01T17:47:59.332Z,17.00
2022-12-01T17:50:28.959Z,17.52
2022-12-01T17:55:25.250Z,15.05
2022-12-01T17:57:52.845Z,17.33
2022-12-01T18:00:20.521Z,16.48
2022-12-01T18:02:51.100Z,15.90
2022-12-01T18:05:24.162Z,16.65
2022-12-01T18:07:52.083Z,25.73
2022-12-01T18:10:18.971Z,39.15
2022-12-01T18:12:48.451Z,23.60
2022-12-01T18:15:23.336Z,21.70
2022-12-01T18:17:52.075Z,17.02
2022-12-01T18:20:19.493Z,16.50
2022-12-01T18:22:46.330Z,16.90
2022-12-01T18:25:13.532Z,16.65
2022-12-01T18:27:40.877Z,17.10
2022-12-01T18:30:10.940Z,16.08
2022-12-01T18:35:08.245Z,16.63
2022-12-01T18:37:37.017Z,16.52
2022-12-01T18:40:07.564Z,15.82
2022-12-01T18:42:37.584Z,16.60
2022-12-01T18:45:05.107Z,15.40
2022-12-01T18:47:32.104Z,16.20
2022-12-01T18:49:59.638Z,16.17
2022-12-01T18:52:26.707Z,16.85
2022-12-01T18:54:54.369Z,17.05
2022-12-01T18:57:21.271Z,16.15
2022-12-01T18:59:48.165Z,17.38
2022-12-01T19:02:15.433Z,15.40
2022-12-01T19:04:42.863Z,17.30
2022-12-01T19:07:09.706Z,17.40
2022-12-01T19:09:36.549Z,17.73
2022-12-01T19:12:06.745Z,16.05
2022-12-01T19:14:44.337Z,17.83
2022-12-01T19:17:14.907Z,16.30
2022-12-01T19:19:42.728Z,17.60
2022-12-01T19:22:12.226Z,16.90
2022-12-01T19:24:39.495Z,17.25
2022-12-01T19:27:11.076Z,18.13
2022-12-01T19:29:38.642Z,18.00
2022-12-01T19:32:06.287Z,18.20
2022-12-01T19:34:34.626Z,17.60
2022-12-01T19:37:02.550Z,16.70
2022-12-01T19:39:29.698Z,17.35
2022-12-01T19:41:57.270Z,18.27
2022-12-01T19:44:35.314Z,22.55
2022-12-01T19:47:09.067Z,18.17
2022-12-01T19:49:42.067Z,18.13
2022-12-01T19:52:08.805Z,19.17
2022-12-01T19:54:37.812Z,17.83
2022-12-01T19:57:04.532Z,18.75
2022-12-01T19:59:31.510Z,19.73
2022-12-01T20:01:58.939Z,18.77
2022-12-01T20:04:26.036Z,19.08
2022-12-01T20:06:55.700Z,20.20
2022-12-01T20:09:28.328Z,25.15
2022-12-01T20:11:55.368Z,17.90
2022-12-01T20:14:22.658Z,18.67
2022-12-01T20:16:57.554Z,23.95
2022-12-01T20:19:24.328Z,23.35
2022-12-01T20:21:54.827Z,26.20
2022-12-01T20:24:29.804Z,19.95
2022-12-01T20:27:03.853Z,20.05
2022-12-01T20:29:37.300Z,21.33
2022-12-01T20:32:23.298Z,20.25
2022-12-01T20:34:51.274Z,21.00
2022-12-01T20:37:18.450Z,18.95
2022-12-01T20:39:48.393Z,19.58
2022-12-01T20:42:26.524Z,19.88
2022-12-01T20:44:53.612Z,19.75
2022-12-01T20:47:27.505Z,19.27
2022-12-01T20:49:58.387Z,20.00
2022-12-01T20:52:28.636Z,19.48
2022-12-01T20:54:57.894Z,19.85
2022-12-01T20:57:24.873Z,20.67
2022-12-01T20:59:53.354Z,19.67
2022-12-01T21:02:20.131Z,21.27
2022-12-01T21:04:47.231Z,20.70
2022-12-01T21:07:15.749Z,19.77
2022-12-01T21:09:42.510Z,20.33
2022-12-01T21:12:34.002Z,20.88
2022-12-01T21:15:22.252Z,20.17
2022-12-01T21:17:58.441Z,20.70
2022-12-01T21:20:31.842Z,20.70
2022-12-01T21:23:07.725Z,20.88
2022-12-01T21:25:40.325Z,20.90
2022-12-01T21:28:23.552Z,19.92
2022-12-01T21:31:00.413Z,20.75
2022-12-01T21:33:34.500Z,19.63
2022-12-01T21:36:14.832Z,20.42
2022-12-01T21:38:45.773Z,20.55
2022-12-01T21:41:27.862Z,21.02
2022-12-01T21:43:56.703Z,21.30
2022-12-01T21:46:25.523Z,20.83
2022-12-01T21:48:52.831Z,15.27
2022-12-01T21:51:23.069Z,21.33
2022-12-01T21:53:51.907Z,20.75
2022-12-01T21:56:31.701Z,21.40
2022-12-01T21:59:23.624Z,19.70
2022-12-01T22:01:59.554Z,22.52
2022-12-01T22:04:30.439Z,20.77
2022-12-01T22:06:58.263Z,23.00
2022-12-01T22:09:24.958Z,21.67
2022-12-01T22:12:00.443Z,21.55
2022-12-01T22:14:37.724Z,23.13
2022-12-01T22:17:07.303Z,20.67
2022-12-01T22:19:38.041Z,21.15
2022-12-01T22:22:10.828Z,22.55
2022-12-01T22:24:43.664Z,21.92
2022-12-01T22:27:22.458Z,21.70
2022-12-01T22:29:54.423Z,21.07
2022-12-01T22:32:33.193Z,20.85
2022-12-01T22:35:31.541Z,21.98
2022-12-01T22:38:12.982Z,20.42
2022-12-01T22:40:54.973Z,20.48
2022-12-01T22:43:26.646Z,20.88
2022-12-01T22:45:59.607Z,21.00
2022-12-01T22:48:37.959Z,22.48
2022-12-01T22:51:14.064Z,22.90
2022-12-01T22:53:42.150Z,21.10
2022-12-01T22:56:26.384Z,21.48
2022-12-01T22:58:53.525Z,21.33
2022-12-01T23:01:33.773Z,22.08
2022-12-01T23:04:20.485Z,21.45
2022-12-01T23:07:09.620Z,20.75
2022-12-01T23:09:41.816Z,21.83
2022-12-01T23:12:33.621Z,20.90
2022-12-01T23:15:28.405Z,20.95
2022-12-01T23:18:21.675Z,22.27
2022-12-01T23:20:56.253Z,21.25
2022-12-01T23:23:30.087Z,19.98
2022-12-01T23:25:57.737Z,22.50
2022-12-01T23:28:29.180Z,22.33
2022-12-01T23:30:58.823Z,21.23
2022-12-01T23:38:45.072Z,19.08
2022-12-01T23:41:51.006Z,21.45
2022-12-01T23:44:41.204Z,21.02
2022-12-01T23:47:22.580Z,19.95
2022-12-01T23:50:00.529Z,21.33
2022-12-01T23:52:37.489Z,20.10
2022-12-01T23:55:35.369Z,20.73
2022-12-01T23:58:03.950Z,20.48
